sensor_id;sensor_type;location;lat;lon;timestamp;P1;durP1;ratioP1;P2;durP2;ratioP2
10705;SDS011;5404;42.656;23.336;2023-03-11T00:00:10;28.25;;;17.05;;
10705;SDS011;5404;42.656;23.336;2023-03-11T00:02:38;30.45;;;18.25;;
10705;SDS011;5404;42.656;23.336;2023-03-11T00:05:05;30.42;;;18.23;;
10705;SDS011;5404;42.656;23.336;2023-03-11T00:07:31;27.58;;;14.43;;
10705;SDS011;5404;42.656;23.336;2023-03-11T00:09:57;8.80;;;6.80;;
10705;SDS011;5404;42.656;23.336;2023-03-11T00:12:23;9.55;;;4.07;;
10705;SDS011;5404;42.656;23.336;2023-03-11T00:14:48;6.30;;;4.72;;
10705;SDS011;5404;42.656;23.336;2023-03-11T00:17:14;4.53;;;3.20;;
10705;SDS011;5404;42.656;23.336;2023-03-11T00:19:40;7.38;;;4.03;;
10705;SDS011;5404;42.656;23.336;2023-03-11T00:22:05;7.50;;;2.90;;
10705;SDS011;5404;42.656;23.336;2023-03-11T00:24:31;5.47;;;2.30;;
10705;SDS011;5404;42.656;23.336;2023-03-11T00:26:56;3.28;;;2.30;;
10705;SDS011;5404;42.656;23.336;2023-03-11T00:29:22;3.03;;;2.00;;
10705;SDS011;5404;42.656;23.336;2023-03-11T00:31:47;5.50;;;1.75;;
10705;SDS011;5404;42.656;23.336;2023-03-11T00:34:13;3.95;;;1.77;;
10705;SDS011;5404;42.656;23.336;2023-03-11T00:36:38;2.83;;;1.70;;
10705;SDS011;5404;42.656;23.336;2023-03-11T00:39:04;2.20;;;1.75;;
10705;SDS011;5404;42.656;23.336;2023-03-11T00:41:33;6.80;;;1.70;;
10705;SDS011;5404;42.656;23.336;2023-03-11T00:43:58;5.97;;;2.15;;
10705;SDS011;5404;42.656;23.336;2023-03-11T00:46:26;6.05;;;2.22;;
10705;SDS011;5404;42.656;23.336;2023-03-11T00:48:52;6.30;;;2.00;;
10705;SDS011;5404;42.656;23.336;2023-03-11T00:51:18;2.47;;;1.63;;
10705;SDS011;5404;42.656;23.336;2023-03-11T00:53:43;2.25;;;1.75;;
10705;SDS011;5404;42.656;23.336;2023-03-11T00:56:10;2.08;;;1.27;;
10705;SDS011;5404;42.656;23.336;2023-03-11T00:58:37;6.57;;;2.05;;
10705;SDS011;5404;42.656;23.336;2023-03-11T01:01:10;5.97;;;1.83;;
10705;SDS011;5404;42.656;23.336;2023-03-11T01:03:38;4.57;;;1.90;;
10705;SDS011;5404;42.656;23.336;2023-03-11T01:06:05;5.28;;;2.03;;
10705;SDS011;5404;42.656;23.336;2023-03-11T01:08:32;2.80;;;2.15;;
10705;SDS011;5404;42.656;23.336;2023-03-11T01:10:59;3.50;;;2.03;;
10705;SDS011;5404;42.656;23.336;2023-03-11T01:13:26;5.70;;;1.92;;
10705;SDS011;5404;42.656;23.336;2023-03-11T01:15:52;4.10;;;1.58;;
10705;SDS011;5404;42.656;23.336;2023-03-11T01:18:18;3.97;;;2.05;;
10705;SDS011;5404;42.656;23.336;2023-03-11T01:20:46;4.93;;;1.93;;
10705;SDS011;5404;42.656;23.336;2023-03-11T01:23:12;4.82;;;1.83;;
10705;SDS011;5404;42.656;23.336;2023-03-11T01:25:40;4.10;;;2.17;;
10705;SDS011;5404;42.656;23.336;2023-03-11T01:28:06;3.90;;;1.75;;
10705;SDS011;5404;42.656;23.336;2023-03-11T01:30:33;6.63;;;2.80;;
10705;SDS011;5404;42.656;23.336;2023-03-11T01:33:00;6.90;;;2.55;;
10705;SDS011;5404;42.656;23.336;2023-03-11T01:35:27;5.30;;;2.25;;
10705;SDS011;5404;42.656;23.336;2023-03-11T01:37:53;3.10;;;1.30;;
10705;SDS011;5404;42.656;23.336;2023-03-11T01:40:33;4.43;;;2.75;;
10705;SDS011;5404;42.656;23.336;2023-03-11T01:43:01;3.85;;;2.55;;
10705;SDS011;5404;42.656;23.336;2023-03-11T01:48:08;2.80;;;2.13;;
10705;SDS011;5404;42.656;23.336;2023-03-11T01:50:35;2.20;;;1.98;;
10705;SDS011;5404;42.656;23.336;2023-03-11T01:53:04;2.47;;;2.03;;
10705;SDS011;5404;42.656;23.336;2023-03-11T01:55:30;5.53;;;2.10;;
10705;SDS011;5404;42.656;23.336;2023-03-11T01:57:56;3.47;;;1.52;;
10705;SDS011;5404;42.656;23.336;2023-03-11T02:00:23;1.95;;;1.73;;
10705;SDS011;5404;42.656;23.336;2023-03-11T02:02:51;2.15;;;1.88;;
10705;SDS011;5404;42.656;23.336;2023-03-11T02:05:19;2.60;;;1.90;;
10705;SDS011;5404;42.656;23.336;2023-03-11T02:07:45;5.82;;;2.70;;
10705;SDS011;5404;42.656;23.336;2023-03-11T02:10:12;4.80;;;3.00;;
10705;SDS011;5404;42.656;23.336;2023-03-11T02:12:38;6.70;;;5.50;;
10705;SDS011;5404;42.656;23.336;2023-03-11T02:15:05;10.80;;;8.05;;
10705;SDS011;5404;42.656;23.336;2023-03-11T02:17:32;8.60;;;6.55;;
10705;SDS011;5404;42.656;23.336;2023-03-11T02:22:45;9.13;;;6.75;;
10705;SDS011;5404;42.656;23.336;2023-03-11T02:28:00;10.45;;;6.45;;
10705;SDS011;5404;42.656;23.336;2023-03-11T02:30:29;13.80;;;6.30;;
10705;SDS011;5404;42.656;23.336;2023-03-11T02:32:56;7.93;;;4.63;;
10705;SDS011;5404;42.656;23.336;2023-03-11T02:35:23;6.30;;;5.05;;
10705;SDS011;5404;42.656;23.336;2023-03-11T02:37:50;6.63;;;5.18;;
10705;SDS011;5404;42.656;23.336;2023-03-11T02:42:49;7.22;;;4.97;;
10705;SDS011;5404;42.656;23.336;2023-03-11T02:45:19;9.18;;;6.03;;
10705;SDS011;5404;42.656;23.336;2023-03-11T02:47:46;10.98;;;5.78;;
10705;SDS011;5404;42.656;23.336;2023-03-11T02:50:14;11.35;;;6.70;;
10705;SDS011;5404;42.656;23.336;2023-03-11T02:52:41;9.35;;;6.63;;
10705;SDS011;5404;42.656;23.336;2023-03-11T02:55:07;15.32;;;8.60;;
10705;SDS011;5404;42.656;23.336;2023-03-11T02:57:33;12.20;;;9.52;;
10705;SDS011;5404;42.656;23.336;2023-03-11T03:00:00;15.98;;;10.57;;
10705;SDS011;5404;42.656;23.336;2023-03-11T03:02:32;17.92;;;10.40;;
10705;SDS011;5404;42.656;23.336;2023-03-11T03:04:57;15.40;;;10.48;;
10705;SDS011;5404;42.656;23.336;2023-03-11T03:07:23;18.08;;;11.90;;
10705;SDS011;5404;42.656;23.336;2023-03-11T03:09:48;19.20;;;12.02;;
10705;SDS011;5404;42.656;23.336;2023-03-11T03:12:14;18.15;;;12.30;;
10705;SDS011;5404;42.656;23.336;2023-03-11T03:14:39;17.45;;;11.55;;
10705;SDS011;5404;42.656;23.336;2023-03-11T03:17:05;16.88;;;11.55;;
10705;SDS011;5404;42.656;23.336;2023-03-11T03:19:30;20.67;;;11.95;;
10705;SDS011;5404;42.656;23.336;2023-03-11T03:21:55;18.88;;;12.20;;
10705;SDS011;5404;42.656;23.336;2023-03-11T03:24:21;18.77;;;12.00;;
10705;SDS011;5404;42.656;23.336;2023-03-11T03:26:46;18.30;;;10.70;;
10705;SDS011;5404;42.656;23.336;2023-03-11T03:29:12;14.80;;;8.95;;
10705;SDS011;5404;42.656;23.336;2023-03-11T03:31:37;14.50;;;8.55;;
10705;SDS011;5404;42.656;23.336;2023-03-11T03:34:03;12.82;;;7.63;;
10705;SDS011;5404;42.656;23.336;2023-03-11T03:36:28;12.75;;;7.03;;
10705;SDS011;5404;42.656;23.336;2023-03-11T03:38:54;13.55;;;8.80;;
10705;SDS011;5404;42.656;23.336;2023-03-11T03:41:21;11.82;;;8.13;;
10705;SDS011;5404;42.656;23.336;2023-03-11T03:43:47;11.48;;;7.75;;
10705;SDS011;5404;42.656;23.336;2023-03-11T03:46:12;13.70;;;8.15;;
10705;SDS011;5404;42.656;23.336;2023-03-11T03:48:39;12.73;;;7.43;;
10705;SDS011;5404;42.656;23.336;2023-03-11T03:51:05;8.27;;;5.95;;
10705;SDS011;5404;42.656;23.336;2023-03-11T03:53:33;4.43;;;2.67;;
10705;SDS011;5404;42.656;23.336;2023-03-11T03:56:03;2.72;;;1.90;;
10705;SDS011;5404;42.656;23.336;2023-03-11T03:58:33;4.85;;;1.77;;
10705;SDS011;5404;42.656;23.336;2023-03-11T04:00:59;3.60;;;1.75;;
10705;SDS011;5404;42.656;23.336;2023-03-11T04:03:25;6.45;;;1.98;;
10705;SDS011;5404;42.656;23.336;2023-03-11T04:05:51;8.80;;;2.20;;
10705;SDS011;5404;42.656;23.336;2023-03-11T04:08:17;20.95;;;4.72;;
10705;SDS011;5404;42.656;23.336;2023-03-11T04:10:44;3.75;;;1.50;;
10705;SDS011;5404;42.656;23.336;2023-03-11T04:13:19;1.02;;;1.00;;
10705;SDS011;5404;42.656;23.336;2023-03-11T04:15:45;7.43;;;2.22;;
10705;SDS011;5404;42.656;23.336;2023-03-11T04:18:10;26.70;;;6.68;;
10705;SDS011;5404;42.656;23.336;2023-03-11T04:20:37;24.05;;;5.50;;
10705;SDS011;5404;42.656;23.336;2023-03-11T04:23:03;6.82;;;2.92;;
10705;SDS011;5404;42.656;23.336;2023-03-11T04:25:28;7.65;;;2.88;;
10705;SDS011;5404;42.656;23.336;2023-03-11T04:27:53;3.10;;;1.60;;
10705;SDS011;5404;42.656;23.336;2023-03-11T04:30:19;1.73;;;1.20;;
10705;SDS011;5404;42.656;23.336;2023-03-11T04:32:45;3.03;;;1.50;;
10705;SDS011;5404;42.656;23.336;2023-03-11T04:35:11;1.55;;;1.08;;
10705;SDS011;5404;42.656;23.336;2023-03-11T04:37:36;5.55;;;1.90;;
10705;SDS011;5404;42.656;23.336;2023-03-11T04:40:02;3.92;;;2.10;;
10705;SDS011;5404;42.656;23.336;2023-03-11T04:42:29;1.52;;;1.15;;
10705;SDS011;5404;42.656;23.336;2023-03-11T04:44:54;1.25;;;1.00;;
10705;SDS011;5404;42.656;23.336;2023-03-11T04:47:20;2.55;;;1.08;;
10705;SDS011;5404;42.656;23.336;2023-03-11T04:49:45;1.17;;;1.02;;
10705;SDS011;5404;42.656;23.336;2023-03-11T04:52:11;1.10;;;1.00;;
10705;SDS011;5404;42.656;23.336;2023-03-11T04:54:36;2.90;;;1.00;;
10705;SDS011;5404;42.656;23.336;2023-03-11T04:57:03;1.17;;;0.88;;
10705;SDS011;5404;42.656;23.336;2023-03-11T04:59:28;0.50;;;0.50;;
10705;SDS011;5404;42.656;23.336;2023-03-11T05:01:54;2.35;;;0.80;;
10705;SDS011;5404;42.656;23.336;2023-03-11T05:04:19;3.15;;;1.13;;
10705;SDS011;5404;42.656;23.336;2023-03-11T05:06:45;15.52;;;3.58;;
10705;SDS011;5404;42.656;23.336;2023-03-11T05:09:11;4.53;;;1.75;;
10705;SDS011;5404;42.656;23.336;2023-03-11T05:11:36;9.07;;;2.55;;
10705;SDS011;5404;42.656;23.336;2023-03-11T05:14:01;4.47;;;2.10;;
10705;SDS011;5404;42.656;23.336;2023-03-11T05:16:27;1.40;;;1.20;;
10705;SDS011;5404;42.656;23.336;2023-03-11T05:18:52;3.05;;;2.15;;
10705;SDS011;5404;42.656;23.336;2023-03-11T05:21:18;6.35;;;0.93;;
10705;SDS011;5404;42.656;23.336;2023-03-11T05:23:43;1.98;;;1.42;;
10705;SDS011;5404;42.656;23.336;2023-03-11T05:26:09;0.90;;;0.90;;
10705;SDS011;5404;42.656;23.336;2023-03-11T05:28:35;0.60;;;0.60;;
10705;SDS011;5404;42.656;23.336;2023-03-11T05:31:00;0.75;;;0.75;;
10705;SDS011;5404;42.656;23.336;2023-03-11T05:33:26;0.95;;;0.88;;
10705;SDS011;5404;42.656;23.336;2023-03-11T05:36:02;0.85;;;0.73;;
10705;SDS011;5404;42.656;23.336;2023-03-11T05:38:28;0.80;;;0.80;;
10705;SDS011;5404;42.656;23.336;2023-03-11T05:40:55;1.73;;;1.00;;
10705;SDS011;5404;42.656;23.336;2023-03-11T05:43:21;2.60;;;0.80;;
10705;SDS011;5404;42.656;23.336;2023-03-11T05:45:47;0.70;;;0.70;;
10705;SDS011;5404;42.656;23.336;2023-03-11T05:48:12;1.00;;;0.80;;
10705;SDS011;5404;42.656;23.336;2023-03-11T05:50:38;1.20;;;0.88;;
10705;SDS011;5404;42.656;23.336;2023-03-11T05:53:04;1.13;;;0.70;;
10705;SDS011;5404;42.656;23.336;2023-03-11T05:55:31;1.20;;;0.80;;
10705;SDS011;5404;42.656;23.336;2023-03-11T05:57:56;1.10;;;1.00;;
10705;SDS011;5404;42.656;23.336;2023-03-11T06:00:22;1.02;;;0.90;;
10705;SDS011;5404;42.656;23.336;2023-03-11T06:02:47;0.80;;;0.80;;
10705;SDS011;5404;42.656;23.336;2023-03-11T06:05:13;1.35;;;0.90;;
10705;SDS011;5404;42.656;23.336;2023-03-11T06:07:38;4.38;;;0.70;;
10705;SDS011;5404;42.656;23.336;2023-03-11T06:10:04;2.75;;;0.80;;
10705;SDS011;5404;42.656;23.336;2023-03-11T06:12:32;1.58;;;0.80;;
10705;SDS011;5404;42.656;23.336;2023-03-11T06:14:58;3.53;;;1.02;;
10705;SDS011;5404;42.656;23.336;2023-03-11T06:17:23;0.85;;;0.80;;
10705;SDS011;5404;42.656;23.336;2023-03-11T06:19:50;4.25;;;0.85;;
10705;SDS011;5404;42.656;23.336;2023-03-11T06:22:16;1.50;;;0.98;;
10705;SDS011;5404;42.656;23.336;2023-03-11T06:24:41;3.50;;;0.93;;
10705;SDS011;5404;42.656;23.336;2023-03-11T06:27:07;1.00;;;0.90;;
10705;SDS011;5404;42.656;23.336;2023-03-11T06:29:33;3.83;;;1.15;;
10705;SDS011;5404;42.656;23.336;2023-03-11T06:31:58;0.70;;;0.70;;
10705;SDS011;5404;42.656;23.336;2023-03-11T06:34:24;1.13;;;0.98;;
10705;SDS011;5404;42.656;23.336;2023-03-11T06:36:51;0.93;;;0.82;;
10705;SDS011;5404;42.656;23.336;2023-03-11T06:39:16;1.95;;;1.35;;
10705;SDS011;5404;42.656;23.336;2023-03-11T06:41:43;3.15;;;1.35;;
10705;SDS011;5404;42.656;23.336;2023-03-11T06:44:09;3.58;;;2.28;;
10705;SDS011;5404;42.656;23.336;2023-03-11T06:46:35;1.90;;;1.67;;
10705;SDS011;5404;42.656;23.336;2023-03-11T06:49:00;1.55;;;1.20;;
10705;SDS011;5404;42.656;23.336;2023-03-11T06:51:26;2.28;;;0.85;;
10705;SDS011;5404;42.656;23.336;2023-03-11T06:53:52;2.00;;;1.00;;
10705;SDS011;5404;42.656;23.336;2023-03-11T06:56:18;8.90;;;3.15;;
10705;SDS011;5404;42.656;23.336;2023-03-11T06:58:45;12.25;;;3.50;;
10705;SDS011;5404;42.656;23.336;2023-03-11T07:01:18;7.28;;;1.70;;
10705;SDS011;5404;42.656;23.336;2023-03-11T07:03:46;5.35;;;2.00;;
10705;SDS011;5404;42.656;23.336;2023-03-11T07:06:16;2.65;;;1.30;;
10705;SDS011;5404;42.656;23.336;2023-03-11T07:08:44;5.18;;;2.50;;
10705;SDS011;5404;42.656;23.336;2023-03-11T07:11:13;8.90;;;3.05;;
10705;SDS011;5404;42.656;23.336;2023-03-11T07:13:41;9.98;;;4.80;;
10705;SDS011;5404;42.656;23.336;2023-03-11T07:16:08;7.13;;;3.15;;
10705;SDS011;5404;42.656;23.336;2023-03-11T07:18:36;10.90;;;4.07;;
10705;SDS011;5404;42.656;23.336;2023-03-11T07:21:03;6.70;;;2.33;;
10705;SDS011;5404;42.656;23.336;2023-03-11T07:23:31;4.05;;;1.58;;
10705;SDS011;5404;42.656;23.336;2023-03-11T07:25:58;3.63;;;1.70;;
10705;SDS011;5404;42.656;23.336;2023-03-11T07:28:24;1.88;;;1.15;;
10705;SDS011;5404;42.656;23.336;2023-03-11T07:30:51;1.60;;;1.27;;
10705;SDS011;5404;42.656;23.336;2023-03-11T07:33:17;3.28;;;1.10;;
10705;SDS011;5404;42.656;23.336;2023-03-11T07:35:45;0.90;;;0.90;;
10705;SDS011;5404;42.656;23.336;2023-03-11T07:38:13;1.70;;;1.07;;
10705;SDS011;5404;42.656;23.336;2023-03-11T07:40:39;0.90;;;0.82;;
10705;SDS011;5404;42.656;23.336;2023-03-11T07:43:05;3.53;;;1.23;;
10705;SDS011;5404;42.656;23.336;2023-03-11T07:45:30;1.42;;;1.00;;
10705;SDS011;5404;42.656;23.336;2023-03-11T07:47:57;3.28;;;1.48;;
10705;SDS011;5404;42.656;23.336;2023-03-11T07:50:22;2.20;;;0.90;;
10705;SDS011;5404;42.656;23.336;2023-03-11T07:52:49;2.28;;;1.15;;
10705;SDS011;5404;42.656;23.336;2023-03-11T07:55:16;2.38;;;1.08;;
10705;SDS011;5404;42.656;23.336;2023-03-11T07:57:42;1.30;;;1.17;;
10705;SDS011;5404;42.656;23.336;2023-03-11T08:00:08;1.75;;;1.00;;
10705;SDS011;5404;42.656;23.336;2023-03-11T08:02:34;2.30;;;0.98;;
10705;SDS011;5404;42.656;23.336;2023-03-11T08:05:00;0.80;;;0.80;;
10705;SDS011;5404;42.656;23.336;2023-03-11T08:07:25;1.20;;;1.10;;
10705;SDS011;5404;42.656;23.336;2023-03-11T08:09:51;3.72;;;1.80;;
10705;SDS011;5404;42.656;23.336;2023-03-11T08:12:16;3.40;;;1.40;;
10705;SDS011;5404;42.656;23.336;2023-03-11T08:14:42;1.35;;;0.80;;
10705;SDS011;5404;42.656;23.336;2023-03-11T08:17:08;2.80;;;1.02;;
10705;SDS011;5404;42.656;23.336;2023-03-11T08:19:34;2.08;;;0.95;;
10705;SDS011;5404;42.656;23.336;2023-03-11T08:22:01;2.17;;;1.60;;
10705;SDS011;5404;42.656;23.336;2023-03-11T08:24:27;5.68;;;1.73;;
10705;SDS011;5404;42.656;23.336;2023-03-11T08:26:53;5.05;;;2.40;;
10705;SDS011;5404;42.656;23.336;2023-03-11T08:29:20;3.17;;;1.40;;
10705;SDS011;5404;42.656;23.336;2023-03-11T08:31:45;5.00;;;1.48;;
10705;SDS011;5404;42.656;23.336;2023-03-11T08:34:11;1.27;;;1.10;;
10705;SDS011;5404;42.656;23.336;2023-03-11T08:36:38;3.45;;;0.90;;
10705;SDS011;5404;42.656;23.336;2023-03-11T08:39:03;6.22;;;2.00;;
10705;SDS011;5404;42.656;23.336;2023-03-11T08:41:29;9.90;;;1.77;;
10705;SDS011;5404;42.656;23.336;2023-03-11T08:43:58;5.63;;;1.73;;
10705;SDS011;5404;42.656;23.336;2023-03-11T08:46:27;4.40;;;2.38;;
10705;SDS011;5404;42.656;23.336;2023-03-11T08:49:00;3.72;;;1.50;;
10705;SDS011;5404;42.656;23.336;2023-03-11T08:51:27;5.40;;;1.98;;
10705;SDS011;5404;42.656;23.336;2023-03-11T08:53:53;3.47;;;1.70;;
10705;SDS011;5404;42.656;23.336;2023-03-11T08:56:19;6.20;;;1.70;;
10705;SDS011;5404;42.656;23.336;2023-03-11T08:58:45;7.15;;;2.58;;
10705;SDS011;5404;42.656;23.336;2023-03-11T09:01:11;9.60;;;2.70;;
10705;SDS011;5404;42.656;23.336;2023-03-11T09:03:38;7.03;;;2.53;;
10705;SDS011;5404;42.656;23.336;2023-03-11T09:06:05;12.35;;;4.15;;
10705;SDS011;5404;42.656;23.336;2023-03-11T09:08:32;2.30;;;1.50;;
10705;SDS011;5404;42.656;23.336;2023-03-11T09:10:59;7.53;;;2.75;;
10705;SDS011;5404;42.656;23.336;2023-03-11T09:13:26;5.05;;;2.28;;
10705;SDS011;5404;42.656;23.336;2023-03-11T09:15:52;3.40;;;2.17;;
10705;SDS011;5404;42.656;23.336;2023-03-11T09:18:18;2.55;;;1.80;;
10705;SDS011;5404;42.656;23.336;2023-03-11T09:20:44;4.38;;;1.63;;
10705;SDS011;5404;42.656;23.336;2023-03-11T09:23:11;4.25;;;2.17;;
10705;SDS011;5404;42.656;23.336;2023-03-11T09:25:38;12.77;;;4.57;;
10705;SDS011;5404;42.656;23.336;2023-03-11T09:28:03;3.60;;;1.83;;
10705;SDS011;5404;42.656;23.336;2023-03-11T09:30:29;16.02;;;3.75;;
10705;SDS011;5404;42.656;23.336;2023-03-11T09:32:55;4.63;;;1.27;;
10705;SDS011;5404;42.656;23.336;2023-03-11T09:35:23;3.55;;;1.48;;
10705;SDS011;5404;42.656;23.336;2023-03-11T09:37:49;6.07;;;1.60;;
10705;SDS011;5404;42.656;23.336;2023-03-11T09:40:15;4.00;;;1.90;;
10705;SDS011;5404;42.656;23.336;2023-03-11T09:45:26;7.15;;;2.70;;
10705;SDS011;5404;42.656;23.336;2023-03-11T09:48:13;7.60;;;2.13;;
10705;SDS011;5404;42.656;23.336;2023-03-11T09:50:59;3.80;;;1.63;;
10705;SDS011;5404;42.656;23.336;2023-03-11T09:53:39;10.55;;;1.50;;
10705;SDS011;5404;42.656;23.336;2023-03-11T09:56:09;4.32;;;1.63;;
10705;SDS011;5404;42.656;23.336;2023-03-11T09:58:50;7.25;;;1.58;;
10705;SDS011;5404;42.656;23.336;2023-03-11T10:01:23;3.35;;;1.38;;
10705;SDS011;5404;42.656;23.336;2023-03-11T10:04:17;5.97;;;1.40;;
10705;SDS011;5404;42.656;23.336;2023-03-11T10:06:48;2.10;;;1.60;;
10705;SDS011;5404;42.656;23.336;2023-03-11T10:20:49;2.95;;;1.52;;
10705;SDS011;5404;42.656;23.336;2023-03-11T10:26:09;7.03;;;1.92;;
10705;SDS011;5404;42.656;23.336;2023-03-11T10:28:39;2.15;;;1.50;;
10705;SDS011;5404;42.656;23.336;2023-03-11T10:31:30;1.65;;;1.10;;
10705;SDS011;5404;42.656;23.336;2023-03-11T10:34:23;6.07;;;1.65;;
10705;SDS011;5404;42.656;23.336;2023-03-11T10:39:40;5.68;;;1.45;;
10705;SDS011;5404;42.656;23.336;2023-03-11T10:42:09;2.00;;;1.17;;
10705;SDS011;5404;42.656;23.336;2023-03-11T10:44:39;2.15;;;1.20;;
10705;SDS011;5404;42.656;23.336;2023-03-11T10:47:17;6.53;;;0.80;;
10705;SDS011;5404;42.656;23.336;2023-03-11T10:49:44;2.45;;;1.00;;
10705;SDS011;5404;42.656;23.336;2023-03-11T10:52:09;13.52;;;1.20;;
10705;SDS011;5404;42.656;23.336;2023-03-11T10:54:36;6.88;;;1.25;;
10705;SDS011;5404;42.656;23.336;2023-03-11T10:57:08;1.20;;;1.02;;
10705;SDS011;5404;42.656;23.336;2023-03-11T10:59:51;2.60;;;1.17;;
10705;SDS011;5404;42.656;23.336;2023-03-11T11:02:25;1.95;;;0.95;;
10705;SDS011;5404;42.656;23.336;2023-03-11T11:07:44;2.45;;;1.23;;
10705;SDS011;5404;42.656;23.336;2023-03-11T11:12:37;1.77;;;1.30;;
10705;SDS011;5404;42.656;23.336;2023-03-11T11:15:27;4.18;;;1.52;;
10705;SDS011;5404;42.656;23.336;2023-03-11T11:18:01;1.90;;;1.05;;
10705;SDS011;5404;42.656;23.336;2023-03-11T11:20:30;5.05;;;1.08;;
10705;SDS011;5404;42.656;23.336;2023-03-11T11:22:58;2.50;;;1.20;;
10705;SDS011;5404;42.656;23.336;2023-03-11T11:25:33;3.58;;;1.40;;
10705;SDS011;5404;42.656;23.336;2023-03-11T11:28:15;3.90;;;1.73;;
10705;SDS011;5404;42.656;23.336;2023-03-11T11:30:55;3.95;;;1.58;;
10705;SDS011;5404;42.656;23.336;2023-03-11T11:33:22;1.52;;;1.10;;
10705;SDS011;5404;42.656;23.336;2023-03-11T11:35:54;6.55;;;1.55;;
10705;SDS011;5404;42.656;23.336;2023-03-11T11:38:22;2.92;;;1.35;;
10705;SDS011;5404;42.656;23.336;2023-03-11T11:40:50;2.93;;;1.30;;
10705;SDS011;5404;42.656;23.336;2023-03-11T11:43:17;3.28;;;1.30;;
10705;SDS011;5404;42.656;23.336;2023-03-11T11:51:33;3.97;;;1.80;;
10705;SDS011;5404;42.656;23.336;2023-03-11T11:56:57;5.20;;;1.50;;
10705;SDS011;5404;42.656;23.336;2023-03-11T11:59:23;2.35;;;1.38;;
10705;SDS011;5404;42.656;23.336;2023-03-11T12:02:01;4.63;;;1.55;;
10705;SDS011;5404;42.656;23.336;2023-03-11T12:14:55;7.72;;;1.85;;
10705;SDS011;5404;42.656;23.336;2023-03-11T12:17:32;2.97;;;1.30;;
10705;SDS011;5404;42.656;23.336;2023-03-11T12:20:04;2.65;;;1.40;;
10705;SDS011;5404;42.656;23.336;2023-03-11T12:25:47;10.57;;;2.83;;
10705;SDS011;5404;42.656;23.336;2023-03-11T12:29:06;6.20;;;1.83;;
10705;SDS011;5404;42.656;23.336;2023-03-11T12:31:20;3.03;;;1.33;;
10705;SDS011;5404;42.656;23.336;2023-03-11T12:33:54;1.70;;;1.10;;
10705;SDS011;5404;42.656;23.336;2023-03-11T12:36:31;3.88;;;1.38;;
10705;SDS011;5404;42.656;23.336;2023-03-11T12:38:59;3.58;;;1.33;;
10705;SDS011;5404;42.656;23.336;2023-03-11T12:49:23;1.37;;;1.00;;
10705;SDS011;5404;42.656;23.336;2023-03-11T12:54:44;5.70;;;1.20;;
10705;SDS011;5404;42.656;23.336;2023-03-11T13:15:48;2.13;;;1.20;;
10705;SDS011;5404;42.656;23.336;2023-03-11T13:18:22;7.32;;;1.77;;
10705;SDS011;5404;42.656;23.336;2023-03-11T13:31:42;4.35;;;1.70;;
10705;SDS011;5404;42.656;23.336;2023-03-11T13:34:35;6.60;;;1.65;;
10705;SDS011;5404;42.656;23.336;2023-03-11T13:37:43;6.32;;;1.67;;
10705;SDS011;5404;42.656;23.336;2023-03-11T13:43:03;1.00;;;1.00;;
10705;SDS011;5404;42.656;23.336;2023-03-11T13:45:51;4.07;;;1.65;;
10705;SDS011;5404;42.656;23.336;2023-03-11T13:48:28;2.75;;;1.55;;
10705;SDS011;5404;42.656;23.336;2023-03-11T13:54:03;4.78;;;1.70;;
10705;SDS011;5404;42.656;23.336;2023-03-11T13:56:50;4.93;;;2.45;;
10705;SDS011;5404;42.656;23.336;2023-03-11T14:01:50;5.30;;;2.22;;
10705;SDS011;5404;42.656;23.336;2023-03-11T14:04:33;3.08;;;1.80;;
10705;SDS011;5404;42.656;23.336;2023-03-11T14:07:11;8.15;;;2.67;;
10705;SDS011;5404;42.656;23.336;2023-03-11T14:09:38;5.82;;;2.40;;
10705;SDS011;5404;42.656;23.336;2023-03-11T14:12:04;11.77;;;3.45;;
10705;SDS011;5404;42.656;23.336;2023-03-11T14:17:20;4.35;;;2.25;;
10705;SDS011;5404;42.656;23.336;2023-03-11T14:22:44;8.18;;;4.15;;
10705;SDS011;5404;42.656;23.336;2023-03-11T14:25:15;12.23;;;5.03;;
10705;SDS011;5404;42.656;23.336;2023-03-11T14:27:45;21.13;;;7.28;;
10705;SDS011;5404;42.656;23.336;2023-03-11T14:30:25;23.63;;;6.90;;
10705;SDS011;5404;42.656;23.336;2023-03-11T14:33:02;11.32;;;4.05;;
10705;SDS011;5404;42.656;23.336;2023-03-11T14:35:30;6.18;;;2.85;;
10705;SDS011;5404;42.656;23.336;2023-03-11T14:37:57;5.30;;;2.58;;
10705;SDS011;5404;42.656;23.336;2023-03-11T14:40:30;15.70;;;6.47;;
10705;SDS011;5404;42.656;23.336;2023-03-11T14:43:01;3.42;;;2.17;;
10705;SDS011;5404;42.656;23.336;2023-03-11T14:45:34;2.83;;;1.85;;
10705;SDS011;5404;42.656;23.336;2023-03-11T14:48:12;6.30;;;3.72;;
10705;SDS011;5404;42.656;23.336;2023-03-11T14:50:39;20.27;;;8.30;;
10705;SDS011;5404;42.656;23.336;2023-03-11T15:00:43;2.80;;;1.90;;
10705;SDS011;5404;42.656;23.336;2023-03-11T15:08:31;6.00;;;3.28;;
10705;SDS011;5404;42.656;23.336;2023-03-11T15:13:36;4.32;;;2.25;;
10705;SDS011;5404;42.656;23.336;2023-03-11T15:16:19;3.13;;;1.70;;
10705;SDS011;5404;42.656;23.336;2023-03-11T15:18:47;10.50;;;2.45;;
10705;SDS011;5404;42.656;23.336;2023-03-11T15:21:14;6.53;;;2.13;;
10705;SDS011;5404;42.656;23.336;2023-03-11T15:23:44;5.53;;;2.45;;
10705;SDS011;5404;42.656;23.336;2023-03-11T15:26:32;4.32;;;2.03;;
10705;SDS011;5404;42.656;23.336;2023-03-11T15:29:15;5.47;;;2.05;;
10705;SDS011;5404;42.656;23.336;2023-03-11T15:31:41;3.10;;;2.00;;
10705;SDS011;5404;42.656;23.336;2023-03-11T15:36:44;5.63;;;2.17;;
10705;SDS011;5404;42.656;23.336;2023-03-11T15:42:11;4.13;;;2.45;;
10705;SDS011;5404;42.656;23.336;2023-03-11T15:47:17;8.63;;;2.88;;
10705;SDS011;5404;42.656;23.336;2023-03-11T15:49:46;7.18;;;2.85;;
10705;SDS011;5404;42.656;23.336;2023-03-11T15:52:13;6.18;;;2.72;;
10705;SDS011;5404;42.656;23.336;2023-03-11T15:54:39;5.53;;;3.00;;
10705;SDS011;5404;42.656;23.336;2023-03-11T15:57:10;10.07;;;3.60;;
10705;SDS011;5404;42.656;23.336;2023-03-11T15:59:49;8.18;;;4.80;;
10705;SDS011;5404;42.656;23.336;2023-03-11T16:02:20;14.18;;;5.28;;
10705;SDS011;5404;42.656;23.336;2023-03-11T16:04:47;12.23;;;5.60;;
10705;SDS011;5404;42.656;23.336;2023-03-11T16:07:13;6.55;;;5.38;;
10705;SDS011;5404;42.656;23.336;2023-03-11T16:09:39;9.27;;;6.43;;
10705;SDS011;5404;42.656;23.336;2023-03-11T16:12:25;8.00;;;5.88;;
10705;SDS011;5404;42.656;23.336;2023-03-11T16:14:50;12.45;;;6.13;;
10705;SDS011;5404;42.656;23.336;2023-03-11T16:17:15;9.63;;;7.60;;
10705;SDS011;5404;42.656;23.336;2023-03-11T16:19:43;13.75;;;7.57;;
10705;SDS011;5404;42.656;23.336;2023-03-11T16:22:16;12.80;;;8.40;;
10705;SDS011;5404;42.656;23.336;2023-03-11T16:24:47;8.00;;;5.28;;
10705;SDS011;5404;42.656;23.336;2023-03-11T16:27:15;12.55;;;5.40;;
10705;SDS011;5404;42.656;23.336;2023-03-11T16:29:42;6.53;;;4.20;;
10705;SDS011;5404;42.656;23.336;2023-03-11T16:32:08;5.80;;;4.20;;
10705;SDS011;5404;42.656;23.336;2023-03-11T16:34:34;6.53;;;4.50;;
10705;SDS011;5404;42.656;23.336;2023-03-11T16:37:00;5.82;;;4.40;;
10705;SDS011;5404;42.656;23.336;2023-03-11T16:39:27;6.40;;;3.50;;
10705;SDS011;5404;42.656;23.336;2023-03-11T16:41:52;5.07;;;3.30;;
10705;SDS011;5404;42.656;23.336;2023-03-11T16:44:19;6.03;;;4.22;;
10705;SDS011;5404;42.656;23.336;2023-03-11T16:46:46;7.53;;;3.90;;
10705;SDS011;5404;42.656;23.336;2023-03-11T16:49:11;4.82;;;3.83;;
10705;SDS011;5404;42.656;23.336;2023-03-11T16:51:36;10.15;;;4.45;;
10705;SDS011;5404;42.656;23.336;2023-03-11T16:54:02;6.75;;;4.40;;
10705;SDS011;5404;42.656;23.336;2023-03-11T16:56:27;6.60;;;4.43;;
10705;SDS011;5404;42.656;23.336;2023-03-11T16:58:53;5.13;;;4.43;;
10705;SDS011;5404;42.656;23.336;2023-03-11T17:01:18;5.32;;;3.75;;
10705;SDS011;5404;42.656;23.336;2023-03-11T17:03:45;5.22;;;3.35;;
10705;SDS011;5404;42.656;23.336;2023-03-11T17:06:12;8.77;;;3.90;;
10705;SDS011;5404;42.656;23.336;2023-03-11T17:08:38;4.38;;;3.10;;